Terminal Aerodrome Forecast
Issued by NWS

Home | Current Version | Previous Version | Text Only | Print | Product List | Glossary On
Versions: 1 2 3 4 5 6 7 8 9 10 11 12 13 14 15 16 17 18 19 20 21 22 23
848
FTUS43 KLSX 262051 AAA
TAFUIN
TAF AMD
KUIN 262051Z 2621/2718 31009KT 6SM -SHRA BR OVC008
     FM270000 32010G20KT 5SM -SHRA BR OVC008
     FM271000 30010G19KT P6SM OVC015
     FM271400 28011G20KT P6SM OVC035=

USA.gov is the U.S. government's official web portal to all federal, state and local government web resources and services.